N3TCR-13 Weather Reports


Display with metric or nautical units.
time (UTC)temp
F
wind
direction
speed
MPH
gust
MPH
rain 1hr
in
rain 24hr
in
rain mn
in
humidity
%
barometer
mb
20191021093016 54 316 0.0 2.0 0.01 1.13 0.01 100 1027.8
20191021091516 54 332 1.0 3.0 0.01 1.13 0.01 100 1027.6
20191021090031 54 303 1.0 3.0 0.00 1.11 0.00 100 1027.4
20191021084526 54 317 1.0 3.0 0.00 1.11 0.00 100 1027.1
20191021083016 54 329 0.0 3.0 0.00 1.11 0.00 100 1027.0
20191021081522 54 330 0.0 2.0 0.00 1.11 0.00 100 1026.8
20191021080017 54 328 0.0 3.0 0.00 1.11 0.00 100 1026.8
20191021074516 54 316 0.0 5.0 0.00 1.11 0.00 100 1026.7
20191021073017 54 340 1.0 3.0 0.00 1.11 0.00 100 1026.6
20191021071517 54 314 1.0 3.0 0.00 1.11 0.00 100 1026.6
20191021070016 54 315 0.0 3.0 0.00 1.11 0.00 100 1026.5
20191021064516 54 320 1.0 4.0 0.00 1.11 0.00 100 1026.4
20191021063016 54 317 0.0 2.0 0.00 1.11 0.00 100 1026.3
20191021061526 54 295 0.0 2.0 0.00 1.11 0.00 100 1026.3
20191021060021 54 318 1.0 3.0 0.00 1.11 0.00 100 1026.2
20191021054526 54 339 1.0 4.0 0.00 1.11 0.00 100 1026.1
20191021053016 54 321 0.0 5.0 0.00 1.11 0.00 100 1025.9
20191021051516 54 313 1.0 2.0 0.00 1.11 0.00 100 1025.9
20191021050016 54 311 0.0 2.0 0.00 1.11 0.00 100 1025.7
20191021044516 54 331 0.0 2.0 0.00 1.11 0.00 100 1025.5
20191021043016 54 327 0.0 2.0 0.00 1.11 0.00 100 1025.5
20191021041516 54 298 1.0 3.0 0.00 1.11 0.00 100 1025.3
20191021040016 54 312 1.0 3.0 0.00 1.11 0.00 100 1025.3
20191021034529 54 311 0.0 2.0 0.00 1.11 1.11 100 1025.3
20191021033022 54 310 1.0 3.0 0.00 1.11 1.11 100 1025.4
20191021031516 54 299 1.0 4.0 0.00 1.11 1.11 100 1025.3
20191021030026 54 324 1.0 4.0 0.00 1.11 1.11 100 1025.2
20191021024517 54 325 1.0 4.0 0.00 1.11 1.11 100 1025.1
20191021023017 54 332 1.0 4.0 0.00 1.11 1.11 100 1025.0
20191021021516 54 311 1.0 6.0 0.00 1.11 1.11 100 1024.7
20191021020017 54 329 1.0 2.0 0.00 1.11 1.11 100 1024.7
20191021014517 54 323 1.0 3.0 0.00 1.11 1.11 100 1024.6
20191021013027 54 295 1.0 4.0 0.00 1.11 1.11 100 1024.5
20191021011521 54 295 2.0 6.0 0.00 1.11 1.11 100 1024.3
20191021010016 55 315 1.0 5.0 0.00 1.11 1.11 100 1024.1
20191021004522 55 323 1.0 5.0 0.00 1.11 1.11 100 1024.0
20191021003016 55 346 1.0 5.0 0.00 1.11 1.11 100 1023.7
20191021001521 55 308 1.0 5.0 0.00 1.11 1.11 100 1023.6
20191021000016 55 301 2.0 6.0 0.00 1.11 1.11 100 1023.4
20191020234521 55 338 1.0 5.0 0.01 1.11 1.11 100 1023.2
20191020233016 55 339 1.0 6.0 0.03 1.11 1.11 100 1022.9
20191020231516 55 342 1.0 4.0 0.04 1.11 1.11 100 1022.7
20191020230016 55 321 2.0 5.0 0.06 1.11 1.11 100 1022.7
20191020224516 55 315 1.0 6.0 0.06 1.09 1.09 100 1022.5
20191020223016 55 354 1.0 6.0 0.07 1.07 1.07 100 1022.3
20191020221516 55 316 2.0 6.0 0.12 1.07 1.07 100 1022.2
20191020220016 55 322 1.0 4.0 0.14 1.05 1.05 100 1021.9
20191020214517 55 323 1.0 5.0 0.12 1.03 1.03 100 1022.0
20191020213016 56 315 2.0 7.0 0.11 1.00 1.00 100 1022.0
20191020211521 56 319 2.0 6.0 0.09 0.94 0.94 100 1021.9
20191020210022 56 301 2.0 6.0 0.06 0.90 0.90 100 1021.7
20191020204517 56 301 1.0 6.0 0.07 0.90 0.90 100 1021.7
20191020203017 56 336 1.0 5.0 0.06 0.88 0.88 100 1021.6
20191020201517 56 306 2.0 5.0 0.02 0.84 0.84 100 1021.5
20191020200017 56 314 1.0 7.0 0.02 0.84 0.84 100 1021.4
20191020194547 56 344 1.0 5.0 0.02 0.82 0.82 100 1021.4
20191020193017 56 312 1.0 6.0 0.02 0.82 0.82 100 1021.4
20191020191516 56 340 2.0 6.0 0.04 0.82 0.82 100 1021.2
20191020190026 56 317 1.0 6.0 0.09 0.81 0.81 100 1021.2
20191020184516 56 312 2.0 6.0 0.10 0.80 0.80 100 1021.3
20191020183026 56 329 1.0 4.0 0.12 0.79 0.79 100 1021.6
20191020181521 56 314 1.0 5.0 0.13 0.77 0.77 100 1021.9
20191020180016 56 357 1.0 6.0 0.10 0.72 0.72 100 1022.3
20191020174516 56 307 1.0 6.0 0.10 0.69 0.69 100 1022.6
20191020173016 56 332 1.0 4.0 0.10 0.67 0.67 100 1022.8
20191020171516 56 328 1.0 4.0 0.08 0.63 0.63 100 1023.4
20191020170022 56 305 1.0 4.0 0.08 0.61 0.61 100 1023.5
20191020164521 56 317 1.0 4.0 0.08 0.59 0.59 100 1023.8
20191020163021 55 315 1.0 5.0 0.08 0.57 0.57 100 1024.1
20191020161516 55 337 0.0 2.0 0.08 0.55 0.55 100 1024.6
20191020160016 55 321 0.0 4.0 0.08 0.53 0.53 100 1025.0
20191020154516 55 297 1.0 3.0 0.10 0.51 0.51 100 1025.3
20191020153016 55 353 0.0 1.0 0.08 0.48 0.48 100 1025.5
20191020151527 55 347 0.0 2.0 0.10 0.47 0.47 100 1025.7
20191020150017 55 340 0.0 1.0 0.10 0.44 0.44 100 1025.9
20191020144517 55 350 0.0 2.0 0.10 0.40 0.40 100 1026.1
20191020143022 55 346 0.0 3.0 0.10 0.40 0.40 100 1026.2
20191020141516 55 331 0.0 2.0 0.09 0.36 0.36 100 1026.3
20191020140021 55 328 0.0 1.0 0.09 0.34 0.34 100 1026.5
20191020134516 55 177 0.0 0.0 0.06 0.30 0.30 100 1026.4
20191020133016 55 296 0.0 0.0 0.06 0.29 0.29 100 1026.3
20191020131516 55 334 0.0 0.0 0.05 0.27 0.27 100 1026.2
20191020130016 55 357 0.0 0.0 0.06 0.25 0.25 100 1026.3
20191020124521 55 15 0.0 0.0 0.06 0.24 0.24 100 1026.2
20191020123016 55 13 0.0 0.0 0.05 0.23 0.23 100 1026.1
20191020121521 55 343 0.0 0.0 0.05 0.21 0.21 100 1026.0
20191020120016 55 357 0.0 0.0 0.04 0.18 0.18 100 1026.1
20191020114516 55 12 0.0 0.0 0.09 0.17 0.17 99 1026.2
20191020113016 55 8 0.0 0.0 0.11 0.17 0.17 99 1026.1
20191020111521 55 10 0.0 0.0 0.15 0.16 0.16 98 1026.2
20191020110022 55 11 0.0 0.0 0.14 0.14 0.14 95 1026.2
20191020104517 56 9 0.0 0.0 0.08 0.08 0.08 93 1026.2
20191020103021 56 10 0.0 0.0 0.06 0.06 0.06 91 1026.2
20191020101521 57 0.0 0.0 0.01 0.01 0.01 88 1026.0
20191020100016 57 0.0 0.0 0.00 0.00 0.00 85 1025.8
20191020094517 58 6 0.0 0.0 0.00 0.00 0.00 84 1025.7